Terminal Aerodrome Forecast
Issued by NWS Blacksburg, VA

Home | Current Version | Previous Version | Text Only | Print | Product List | Glossary On
Versions: 1 2 3 4 5 6 7 8 9 10 11 12 13 14 15 16 17 18 19 20 21 22 23 24 25 26 27 28
535
FTUS41 KRNK 121910 AAA
TAFLYH
TAF AMD
KLYH 121910Z 1219/1318 25004KT 3SM -SN BKN030 OVC040
     FM122000 25010G20KT P6SM -SHSN BKN040
     FM130400 28015G25KT P6SM BKN050
     FM131400 31010G21KT P6SM SCT045=

USA.gov is the U.S. government's official web portal to all federal, state and local government web resources and services.